sensor_id;sensor_type;location;lat;lon;timestamp;temperature;humidity
11399;DHT22;5755;48.116;11.608;2023-04-01T00:00:25;8.30;91.30
11399;DHT22;5755;48.116;11.608;2023-04-01T00:02:52;8.30;91.50
11399;DHT22;5755;48.116;11.608;2023-04-01T00:05:19;8.30;91.60
11399;DHT22;5755;48.116;11.608;2023-04-01T00:07:46;8.20;91.90
11399;DHT22;5755;48.116;11.608;2023-04-01T00:10:15;8.20;92.10
11399;DHT22;5755;48.116;11.608;2023-04-01T00:12:42;8.20;92.00
11399;DHT22;5755;48.116;11.608;2023-04-01T00:15:11;8.20;92.00
11399;DHT22;5755;48.116;11.608;2023-04-01T00:17:38;8.10;92.10
11399;DHT22;5755;48.116;11.608;2023-04-01T00:20:07;8.10;92.00
11399;DHT22;5755;48.116;11.608;2023-04-01T00:22:34;8.10;91.90
11399;DHT22;5755;48.116;11.608;2023-04-01T00:25:02;8.10;91.90
11399;DHT22;5755;48.116;11.608;2023-04-01T00:27:28;8.10;91.70
11399;DHT22;5755;48.116;11.608;2023-04-01T00:29:56;8.10;91.90
11399;DHT22;5755;48.116;11.608;2023-04-01T00:32:24;8.10;91.90
11399;DHT22;5755;48.116;11.608;2023-04-01T00:34:52;8.10;91.90
11399;DHT22;5755;48.116;11.608;2023-04-01T00:37:19;8.00;92.40
11399;DHT22;5755;48.116;11.608;2023-04-01T00:39:47;8.00;92.20
11399;DHT22;5755;48.116;11.608;2023-04-01T00:42:14;7.90;92.20
11399;DHT22;5755;48.116;11.608;2023-04-01T00:44:41;7.90;92.50
11399;DHT22;5755;48.116;11.608;2023-04-01T00:47:08;7.90;92.30
11399;DHT22;5755;48.116;11.608;2023-04-01T00:49:38;7.90;92.70
11399;DHT22;5755;48.116;11.608;2023-04-01T00:52:07;8.00;92.50
11399;DHT22;5755;48.116;11.608;2023-04-01T00:54:36;7.90;92.50
11399;DHT22;5755;48.116;11.608;2023-04-01T00:57:07;8.00;92.30
11399;DHT22;5755;48.116;11.608;2023-04-01T00:59:39;8.00;92.70
11399;DHT22;5755;48.116;11.608;2023-04-01T01:02:09;7.90;92.90
11399;DHT22;5755;48.116;11.608;2023-04-01T01:04:38;7.90;92.40
11399;DHT22;5755;48.116;11.608;2023-04-01T01:07:13;7.90;92.50
11399;DHT22;5755;48.116;11.608;2023-04-01T01:09:51;8.10;92.10
11399;DHT22;5755;48.116;11.608;2023-04-01T01:12:25;8.20;91.50
11399;DHT22;5755;48.116;11.608;2023-04-01T01:15:02;8.20;91.70
11399;DHT22;5755;48.116;11.608;2023-04-01T01:17:44;8.20;91.50
11399;DHT22;5755;48.116;11.608;2023-04-01T01:20:24;8.20;91.60
11399;DHT22;5755;48.116;11.608;2023-04-01T01:23:06;8.20;91.30
11399;DHT22;5755;48.116;11.608;2023-04-01T01:25:46;8.20;91.70
11399;DHT22;5755;48.116;11.608;2023-04-01T01:28:31;8.30;91.20
11399;DHT22;5755;48.116;11.608;2023-04-01T01:31:03;8.30;91.10
11399;DHT22;5755;48.116;11.608;2023-04-01T01:33:53;8.20;91.10
11399;DHT22;5755;48.116;11.608;2023-04-01T01:36:28;8.30;91.20
11399;DHT22;5755;48.116;11.608;2023-04-01T01:38:57;8.30;91.10
11399;DHT22;5755;48.116;11.608;2023-04-01T01:41:25;8.40;91.10
11399;DHT22;5755;48.116;11.608;2023-04-01T01:43:53;8.40;90.80
11399;DHT22;5755;48.116;11.608;2023-04-01T01:46:24;8.40;90.40
11399;DHT22;5755;48.116;11.608;2023-04-01T01:48:53;8.40;90.60
11399;DHT22;5755;48.116;11.608;2023-04-01T01:51:22;8.30;91.10
11399;DHT22;5755;48.116;11.608;2023-04-01T01:53:50;8.20;91.20
11399;DHT22;5755;48.116;11.608;2023-04-01T01:56:18;8.20;91.30
11399;DHT22;5755;48.116;11.608;2023-04-01T01:58:48;8.20;91.50
11399;DHT22;5755;48.116;11.608;2023-04-01T02:01:19;8.20;91.10
11399;DHT22;5755;48.116;11.608;2023-04-01T02:03:47;8.30;91.00
11399;DHT22;5755;48.116;11.608;2023-04-01T02:06:17;8.30;91.20
11399;DHT22;5755;48.116;11.608;2023-04-01T02:08:45;8.20;91.10
11399;DHT22;5755;48.116;11.608;2023-04-01T02:11:17;8.20;91.20
11399;DHT22;5755;48.116;11.608;2023-04-01T02:13:49;8.20;91.20
11399;DHT22;5755;48.116;11.608;2023-04-01T02:16:20;8.20;90.90
11399;DHT22;5755;48.116;11.608;2023-04-01T02:18:49;8.20;91.20
11399;DHT22;5755;48.116;11.608;2023-04-01T02:21:20;8.20;91.00
11399;DHT22;5755;48.116;11.608;2023-04-01T02:23:49;8.20;91.00
11399;DHT22;5755;48.116;11.608;2023-04-01T02:26:18;8.20;90.90
11399;DHT22;5755;48.116;11.608;2023-04-01T02:28:48;8.30;90.30
11399;DHT22;5755;48.116;11.608;2023-04-01T02:31:15;8.30;90.30
11399;DHT22;5755;48.116;11.608;2023-04-01T02:33:43;8.30;90.30
11399;DHT22;5755;48.116;11.608;2023-04-01T02:36:12;8.20;90.30
11399;DHT22;5755;48.116;11.608;2023-04-01T02:38:39;8.20;90.30
11399;DHT22;5755;48.116;11.608;2023-04-01T02:41:07;8.20;90.30
11399;DHT22;5755;48.116;11.608;2023-04-01T02:43:35;8.20;90.30
11399;DHT22;5755;48.116;11.608;2023-04-01T02:46:02;8.30;90.30
11399;DHT22;5755;48.116;11.608;2023-04-01T02:48:29;8.20;90.30
11399;DHT22;5755;48.116;11.608;2023-04-01T02:50:56;8.20;90.30
11399;DHT22;5755;48.116;11.608;2023-04-01T02:53:23;8.10;90.30
11399;DHT22;5755;48.116;11.608;2023-04-01T02:55:50;8.10;90.30
11399;DHT22;5755;48.116;11.608;2023-04-01T02:58:17;8.20;90.50
11399;DHT22;5755;48.116;11.608;2023-04-01T03:00:46;8.20;90.30
11399;DHT22;5755;48.116;11.608;2023-04-01T03:03:13;8.20;90.30
11399;DHT22;5755;48.116;11.608;2023-04-01T03:05:40;8.20;90.30
11399;DHT22;5755;48.116;11.608;2023-04-01T03:08:06;8.10;90.30
11399;DHT22;5755;48.116;11.608;2023-04-01T03:10:33;8.10;90.30
11399;DHT22;5755;48.116;11.608;2023-04-01T03:13:00;8.20;90.30
11399;DHT22;5755;48.116;11.608;2023-04-01T03:15:27;8.10;90.30
11399;DHT22;5755;48.116;11.608;2023-04-01T03:17:56;8.10;90.30
11399;DHT22;5755;48.116;11.608;2023-04-01T03:20:22;8.10;90.30
11399;DHT22;5755;48.116;11.608;2023-04-01T03:22:50;8.10;90.30
11399;DHT22;5755;48.116;11.608;2023-04-01T03:25:18;8.20;90.30
11399;DHT22;5755;48.116;11.608;2023-04-01T03:27:45;8.10;90.30
11399;DHT22;5755;48.116;11.608;2023-04-01T03:30:12;8.10;90.30
11399;DHT22;5755;48.116;11.608;2023-04-01T03:32:39;8.10;90.30
11399;DHT22;5755;48.116;11.608;2023-04-01T03:35:08;8.00;90.30
11399;DHT22;5755;48.116;11.608;2023-04-01T03:37:35;8.00;90.50
11399;DHT22;5755;48.116;11.608;2023-04-01T03:40:03;8.00;90.30
11399;DHT22;5755;48.116;11.608;2023-04-01T03:42:30;8.00;90.30
11399;DHT22;5755;48.116;11.608;2023-04-01T03:44:57;7.90;90.20
11399;DHT22;5755;48.116;11.608;2023-04-01T03:47:24;7.90;90.20
11399;DHT22;5755;48.116;11.608;2023-04-01T03:49:51;7.80;90.50
11399;DHT22;5755;48.116;11.608;2023-04-01T03:52:19;7.70;90.80
11399;DHT22;5755;48.116;11.608;2023-04-01T03:54:46;7.70;91.00
11399;DHT22;5755;48.116;11.608;2023-04-01T03:57:13;7.80;90.80
11399;DHT22;5755;48.116;11.608;2023-04-01T03:59:42;7.80;90.90
11399;DHT22;5755;48.116;11.608;2023-04-01T04:02:09;7.70;91.10
11399;DHT22;5755;48.116;11.608;2023-04-01T04:04:36;7.70;91.20
11399;DHT22;5755;48.116;11.608;2023-04-01T04:07:03;7.70;91.20
11399;DHT22;5755;48.116;11.608;2023-04-01T04:09:32;7.70;91.30
11399;DHT22;5755;48.116;11.608;2023-04-01T04:11:59;7.70;91.40
11399;DHT22;5755;48.116;11.608;2023-04-01T04:14:26;7.70;91.50
11399;DHT22;5755;48.116;11.608;2023-04-01T04:16:53;7.70;91.60
11399;DHT22;5755;48.116;11.608;2023-04-01T04:19:20;7.60;91.80
11399;DHT22;5755;48.116;11.608;2023-04-01T04:21:47;7.70;91.60
11399;DHT22;5755;48.116;11.608;2023-04-01T04:24:14;7.70;91.50
11399;DHT22;5755;48.116;11.608;2023-04-01T04:26:42;7.70;91.80
11399;DHT22;5755;48.116;11.608;2023-04-01T04:29:09;7.70;91.90
11399;DHT22;5755;48.116;11.608;2023-04-01T04:31:36;7.80;91.80
11399;DHT22;5755;48.116;11.608;2023-04-01T04:34:03;7.80;92.10
11399;DHT22;5755;48.116;11.608;2023-04-01T04:36:30;7.80;91.50
11399;DHT22;5755;48.116;11.608;2023-04-01T04:38:57;7.80;91.50
11399;DHT22;5755;48.116;11.608;2023-04-01T04:41:27;7.80;91.50
11399;DHT22;5755;48.116;11.608;2023-04-01T04:43:56;7.90;91.30
11399;DHT22;5755;48.116;11.608;2023-04-01T04:46:24;7.90;91.20
11399;DHT22;5755;48.116;11.608;2023-04-01T04:48:51;7.90;91.30
11399;DHT22;5755;48.116;11.608;2023-04-01T04:51:19;7.90;91.50
11399;DHT22;5755;48.116;11.608;2023-04-01T04:53:46;7.90;91.50
11399;DHT22;5755;48.116;11.608;2023-04-01T04:56:13;7.90;91.20
11399;DHT22;5755;48.116;11.608;2023-04-01T04:58:43;7.90;91.50
11399;DHT22;5755;48.116;11.608;2023-04-01T05:01:14;8.00;91.50
11399;DHT22;5755;48.116;11.608;2023-04-01T05:03:42;8.00;90.90
11399;DHT22;5755;48.116;11.608;2023-04-01T05:06:11;8.00;91.30
11399;DHT22;5755;48.116;11.608;2023-04-01T05:08:39;8.00;91.10
11399;DHT22;5755;48.116;11.608;2023-04-01T05:11:07;8.00;91.10
11399;DHT22;5755;48.116;11.608;2023-04-01T05:13:36;8.10;90.70
11399;DHT22;5755;48.116;11.608;2023-04-01T05:16:03;8.20;90.30
11399;DHT22;5755;48.116;11.608;2023-04-01T05:18:31;8.10;90.30
11399;DHT22;5755;48.116;11.608;2023-04-01T05:20:58;8.20;90.30
11399;DHT22;5755;48.116;11.608;2023-04-01T05:23:25;8.20;90.30
11399;DHT22;5755;48.116;11.608;2023-04-01T05:25:52;8.20;90.30
11399;DHT22;5755;48.116;11.608;2023-04-01T05:28:19;8.20;89.70
11399;DHT22;5755;48.116;11.608;2023-04-01T05:30:46;8.30;90.30
11399;DHT22;5755;48.116;11.608;2023-04-01T05:33:13;8.30;88.60
11399;DHT22;5755;48.116;11.608;2023-04-01T05:35:41;8.40;88.20
11399;DHT22;5755;48.116;11.608;2023-04-01T05:38:10;8.40;88.10
11399;DHT22;5755;48.116;11.608;2023-04-01T05:40:37;8.40;87.00
11399;DHT22;5755;48.116;11.608;2023-04-01T05:43:04;8.50;86.30
11399;DHT22;5755;48.116;11.608;2023-04-01T05:45:30;8.50;85.20
11399;DHT22;5755;48.116;11.608;2023-04-01T05:47:59;8.50;84.00
11399;DHT22;5755;48.116;11.608;2023-04-01T05:50:26;8.50;85.10
11399;DHT22;5755;48.116;11.608;2023-04-01T05:52:56;8.50;84.40
11399;DHT22;5755;48.116;11.608;2023-04-01T05:55:23;8.60;84.40
11399;DHT22;5755;48.116;11.608;2023-04-01T05:57:50;8.60;83.10
11399;DHT22;5755;48.116;11.608;2023-04-01T06:00:17;8.60;83.40
11399;DHT22;5755;48.116;11.608;2023-04-01T06:02:45;8.60;83.50
11399;DHT22;5755;48.116;11.608;2023-04-01T06:05:17;8.70;82.80
11399;DHT22;5755;48.116;11.608;2023-04-01T06:07:44;8.80;82.90
11399;DHT22;5755;48.116;11.608;2023-04-01T06:10:36;8.80;81.20
11399;DHT22;5755;48.116;11.608;2023-04-01T06:13:09;8.80;81.00
11399;DHT22;5755;48.116;11.608;2023-04-01T06:15:40;8.80;80.50
11399;DHT22;5755;48.116;11.608;2023-04-01T06:21:37;8.80;80.50
11399;DHT22;5755;48.116;11.608;2023-04-01T06:24:27;8.90;79.20
11399;DHT22;5755;48.116;11.608;2023-04-01T06:27:07;8.90;78.30
11399;DHT22;5755;48.116;11.608;2023-04-01T06:30:00;9.10;76.20
11399;DHT22;5755;48.116;11.608;2023-04-01T06:32:51;9.20;75.10
11399;DHT22;5755;48.116;11.608;2023-04-01T06:38:25;9.50;72.70
11399;DHT22;5755;48.116;11.608;2023-04-01T06:41:05;9.70;71.80
11399;DHT22;5755;48.116;11.608;2023-04-01T06:43:44;10.00;63.10
11399;DHT22;5755;48.116;11.608;2023-04-01T06:46:20;10.10;59.50
11399;DHT22;5755;48.116;11.608;2023-04-01T06:49:19;10.00;59.30
11399;DHT22;5755;48.116;11.608;2023-04-01T06:51:52;10.00;60.00
11399;DHT22;5755;48.116;11.608;2023-04-01T06:54:25;9.80;61.10
11399;DHT22;5755;48.116;11.608;2023-04-01T06:56:59;9.70;62.60
11399;DHT22;5755;48.116;11.608;2023-04-01T06:59:32;9.60;63.70
11399;DHT22;5755;48.116;11.608;2023-04-01T07:02:02;9.70;64.40
11399;DHT22;5755;48.116;11.608;2023-04-01T07:04:32;9.70;66.10
11399;DHT22;5755;48.116;11.608;2023-04-01T07:07:04;9.80;62.60
11399;DHT22;5755;48.116;11.608;2023-04-01T07:09:35;10.00;58.60
11399;DHT22;5755;48.116;11.608;2023-04-01T07:12:10;10.20;58.80
11399;DHT22;5755;48.116;11.608;2023-04-01T07:14:41;10.30;58.30
11399;DHT22;5755;48.116;11.608;2023-04-01T07:17:13;10.30;55.40
11399;DHT22;5755;48.116;11.608;2023-04-01T07:19:45;10.40;55.10
11399;DHT22;5755;48.116;11.608;2023-04-01T07:22:29;10.30;53.40
11399;DHT22;5755;48.116;11.608;2023-04-01T07:25:03;10.10;54.30
11399;DHT22;5755;48.116;11.608;2023-04-01T07:27:32;10.20;55.60
11399;DHT22;5755;48.116;11.608;2023-04-01T07:30:01;10.00;54.30
11399;DHT22;5755;48.116;11.608;2023-04-01T07:32:35;9.90;57.60
11399;DHT22;5755;48.116;11.608;2023-04-01T07:35:17;10.00;56.90
11399;DHT22;5755;48.116;11.608;2023-04-01T07:37:57;10.10;55.00
11399;DHT22;5755;48.116;11.608;2023-04-01T07:40:30;10.20;54.60
11399;DHT22;5755;48.116;11.608;2023-04-01T07:43:17;10.30;56.20
11399;DHT22;5755;48.116;11.608;2023-04-01T07:45:53;10.40;53.00
11399;DHT22;5755;48.116;11.608;2023-04-01T07:48:29;10.60;52.30
11399;DHT22;5755;48.116;11.608;2023-04-01T07:51:02;11.00;49.80
11399;DHT22;5755;48.116;11.608;2023-04-01T07:53:33;11.10;48.60
11399;DHT22;5755;48.116;11.608;2023-04-01T07:56:06;11.30;48.00
11399;DHT22;5755;48.116;11.608;2023-04-01T07:58:42;11.40;46.30
11399;DHT22;5755;48.116;11.608;2023-04-01T08:01:18;11.50;47.70
11399;DHT22;5755;48.116;11.608;2023-04-01T08:04:08;11.70;43.70
11399;DHT22;5755;48.116;11.608;2023-04-01T08:06:42;11.70;42.20
11399;DHT22;5755;48.116;11.608;2023-04-01T08:09:18;11.50;40.50
11399;DHT22;5755;48.116;11.608;2023-04-01T08:12:02;11.20;41.30
11399;DHT22;5755;48.116;11.608;2023-04-01T08:14:36;11.10;44.40
11399;DHT22;5755;48.116;11.608;2023-04-01T08:17:13;11.20;44.50
11399;DHT22;5755;48.116;11.608;2023-04-01T08:20:18;11.30;45.30
11399;DHT22;5755;48.116;11.608;2023-04-01T08:22:50;11.50;43.00
